Time;durP1;ratioP1;P1;durP2;ratioP2;P2;SDS_P1;SDS_P2;PMS_P1;PMS_P2;Temp;Humidity;BMP_temperature;BMP_pressure;BME280_temperature;BME280_humidity;BME280_pressure;Samples;Min_cycle;Max_cycle;Signal;HPM_P1;HPM_P2
2020/12/08 20:30:31;;;;;;;5.95;3.70;;;17.90;59.90;;;;;;10596238;27;792927;-64
2020/12/08 20:35:32;;;;;;;7.45;3.63;;;17.70;60.70;;;;;;10583886;27;20024;-64
2020/12/08 20:40:33;;;;;;;11.57;3.75;;;17.60;61.00;;;;;;10577787;28;20099;-64
2020/12/08 20:45:33;;;;;;;6.03;3.30;;;17.30;61.40;;;;;;10577871;28;20023;-64
2020/12/08 20:50:34;;;;;;;4.47;3.15;;;17.20;61.60;;;;;;10594497;28;20352;-64
2020/12/08 20:55:35;;;;;;;7.22;3.20;;;17.10;62.00;;;;;;10583860;28;20434;-64
2020/12/08 21:00:36;;;;;;;3.95;2.67;;;16.90;62.40;;;;;;10581306;28;20051;-64
2020/12/08 21:05:37;;;;;;;7.75;3.33;;;16.70;62.70;;;;;;10581600;28;20089;-64
2020/12/08 21:10:38;;;;;;;4.30;3.15;;;16.60;62.90;;;;;;10580136;28;20035;-64
2020/12/08 21:15:39;;;;;;;4.47;3.13;;;16.50;63.10;;;;;;10597824;28;20122;-64
2020/12/08 21:20:39;;;;;;;4.38;2.90;;;16.40;63.20;;;;;;10597212;28;20031;-64
2020/12/08 21:25:40;;;;;;;4.88;3.13;;;16.30;63.30;;;;;;10602608;28;20031;-64
2020/12/08 21:30:41;;;;;;;4.55;3.50;;;16.30;63.40;;;;;;10599421;28;20067;-64
2020/12/08 21:35:42;;;;;;;5.05;3.53;;;16.20;63.40;;;;;;10578956;28;20042;-64
2020/12/08 21:40:42;;;;;;;4.90;3.47;;;16.10;63.50;;;;;;10553339;28;20103;-64
2020/12/08 21:45:43;;;;;;;4.35;3.15;;;16.10;63.60;;;;;;10549980;28;20098;-64
2020/12/08 21:50:44;;;;;;;5.85;3.17;;;16.00;63.50;;;;;;10548386;28;20448;-64
2020/12/08 21:55:44;;;;;;;4.07;3.15;;;16.00;63.60;;;;;;10545838;28;20028;-65
2020/12/08 22:00:45;;;;;;;4.68;3.72;;;15.90;63.70;;;;;;10547071;28;20020;-64
2020/12/08 22:05:46;;;;;;;5.97;3.83;;;15.80;63.60;;;;;;10547717;28;20034;-65
2020/12/08 22:10:47;;;;;;;5.13;3.45;;;15.80;63.60;;;;;;10560005;28;20425;-65
2020/12/08 22:15:48;;;;;;;5.47;3.65;;;15.80;63.60;;;;;;10554101;28;20031;-64
2020/12/08 22:20:49;;;;;;;5.50;3.70;;;15.80;63.70;;;;;;10558340;28;20036;-65
2020/12/08 22:25:49;;;;;;;4.72;3.83;;;15.70;63.70;;;;;;10562083;28;20495;-65
2020/12/08 22:30:50;;;;;;;4.97;4.03;;;15.70;63.70;;;;;;10572156;28;20488;-65
2020/12/08 22:35:51;;;;;;;5.38;3.95;;;15.60;63.60;;;;;;10542650;28;20567;-64
2020/12/08 22:40:51;;;;;;;5.25;4.25;;;15.60;63.70;;;;;;10548709;28;20118;-64
2020/12/08 22:45:52;;;;;;;6.18;4.03;;;15.50;63.70;;;;;;10550534;28;20028;-64
2020/12/08 22:50:53;;;;;;;4.72;3.50;;;15.40;63.70;;;;;;10568410;28;20028;-64
2020/12/08 22:55:54;;;;;;;5.40;4.00;;;15.40;63.70;;;;;;10570792;28;20486;-65
2020/12/08 23:00:54;;;;;;;5.03;3.88;;;15.40;63.70;;;;;;10545164;28;20088;-64
2020/12/08 23:05:55;;;;;;;4.38;3.53;;;15.40;63.70;;;;;;10553470;28;20019;-64
2020/12/08 23:10:56;;;;;;;5.25;4.15;;;15.30;63.60;;;;;;10542252;28;20373;-65
2020/12/08 23:15:56;;;;;;;4.05;3.53;;;15.30;63.60;;;;;;10563417;28;20114;-65
2020/12/08 23:20:57;;;;;;;4.22;3.50;;;15.30;63.60;;;;;;10545807;28;20549;-64
2020/12/08 23:25:58;;;;;;;5.78;4.13;;;15.30;63.60;;;;;;10550003;28;20062;-65
2020/12/08 23:30:58;;;;;;;4.70;3.88;;;15.30;63.60;;;;;;10556380;27;20028;-64
2020/12/08 23:35:59;;;;;;;4.40;3.40;;;15.20;63.50;;;;;;10543731;28;20454;-64
2020/12/08 23:41:00;;;;;;;3.88;3.15;;;15.20;63.50;;;;;;10546422;28;20081;-64
2020/12/08 23:46:01;;;;;;;5.28;4.25;;;15.20;63.50;;;;;;10563642;28;20157;-65
2020/12/08 23:51:01;;;;;;;4.53;3.47;;;15.20;63.40;;;;;;10565872;28;20042;-64
2020/12/08 23:56:02;;;;;;;5.13;4.07;;;15.20;63.50;;;;;;10555547;28;20164;-65
